Terminal Aerodrome Forecast
Issued by NWS

Home | Current Version | Previous Version | Text Only | Print | Product List | Glossary On
Versions: 1 2 3 4 5 6 7 8 9 10 11 12 13 14 15 16
668
FTUS43 KFGF 281625 AAB
TAFBJI
TAF AMD
KBJI 281625Z 2816/0112 06008KT P6SM SCT017
      TEMPO 2816/2818 BKN017
     FM281800 03009KT P6SM BKN050
     FM010200 02006KT P6SM BKN015
     FM011100 02004KT P6SM BKN008=

USA.gov is the U.S. government's official web portal to all federal, state and local government web resources and services.